Time;durP1;ratioP1;P1;durP2;ratioP2;P2;SDS_P1;SDS_P2;PMS_P1;PMS_P2;Temp;Humidity;BMP_temperature;BMP_pressure;BME280_temperature;BME280_humidity;BME280_pressure;Samples;Min_cycle;Max_cycle;Signal;HPM_P1;HPM_P2
2022/10/23 00:02:01;;;;;;;1999.90;999.90;;;;;;;10.51;100.00;94218.13;5093437;28;20175;-62
2022/10/23 00:04:27;;;;;;;1999.90;999.90;;;;;;;10.50;100.00;94197.50;5093896;28;20217;-62
2022/10/23 00:06:53;;;;;;;1999.90;999.90;;;;;;;10.47;100.00;94198.34;5093867;28;20227;-61
2022/10/23 00:09:22;;;;;;;1999.90;999.90;;;;;;;10.48;100.00;94183.53;5093560;28;20177;-62
2022/10/23 00:11:49;;;;;;;1999.90;999.90;;;;;;;10.43;100.00;94181.31;5092983;28;20207;-73
2022/10/23 00:14:17;;;;;;;1999.90;999.90;;;;;;;10.42;100.00;94196.16;5093523;28;20169;-62
2022/10/23 00:16:43;;;;;;;1999.90;999.90;;;;;;;10.38;100.00;94182.59;5093982;28;20168;-62
2022/10/23 00:19:08;;;;;;;1999.90;999.90;;;;;;;10.33;100.00;94196.00;5093938;28;20558;-61
2022/10/23 00:21:34;;;;;;;1999.90;999.90;;;;;;;10.31;100.00;94195.69;5092997;28;20175;-63
2022/10/23 00:23:59;;;;;;;1999.90;999.90;;;;;;;10.33;100.00;94185.84;5093915;28;20177;-63
2022/10/23 00:26:25;;;;;;;1999.90;999.90;;;;;;;10.32;100.00;94202.66;5093628;28;20211;-63
2022/10/23 00:28:52;;;;;;;1999.90;999.90;;;;;;;10.32;100.00;94197.19;5093831;28;20528;-62
2022/10/23 00:31:19;;;;;;;1999.90;999.90;;;;;;;10.29;100.00;94195.31;5095283;28;20188;-58
2022/10/23 00:33:46;;;;;;;1999.90;999.90;;;;;;;10.24;100.00;94184.94;5097806;28;20204;-75
2022/10/23 00:36:13;;;;;;;1999.90;999.90;;;;;;;10.19;100.00;94193.66;5096980;28;20169;-75
2022/10/23 00:38:39;;;;;;;1999.90;999.90;;;;;;;10.17;100.00;94191.38;5097206;28;20187;-76
2022/10/23 00:41:06;;;;;;;1999.90;999.90;;;;;;;10.11;100.00;94187.63;5097607;28;20177;-76
2022/10/23 00:43:33;;;;;;;1999.90;999.90;;;;;;;10.11;100.00;94198.53;5096943;28;20176;-75
2022/10/23 00:45:59;;;;;;;1999.90;999.90;;;;;;;10.12;100.00;94188.41;5097202;28;20669;-74
2022/10/23 00:48:26;;;;;;;1999.90;999.90;;;;;;;10.12;100.00;94199.31;5096752;28;20183;-74
2022/10/23 00:50:52;;;;;;;1999.90;999.90;;;;;;;10.06;100.00;94190.88;5097973;28;20172;-61
2022/10/23 00:53:19;;;;;;;1999.90;999.90;;;;;;;10.03;100.00;94195.16;5097090;28;20574;-58
2022/10/23 00:55:47;;;;;;;1999.90;999.90;;;;;;;9.98;100.00;94198.44;5096748;28;20173;-59
2022/10/23 00:58:18;;;;;;;1999.90;999.90;;;;;;;9.95;100.00;94207.47;5097154;28;20177;-59
2022/10/23 01:01:02;;;;;;;1999.90;999.90;;;;;;;9.96;100.00;94203.56;5096422;28;20180;-58
2022/10/23 01:03:28;;;;;;;1999.90;999.90;;;;;;;9.94;100.00;94199.72;5097132;28;20180;-59
2022/10/23 01:06:08;;;;;;;1999.90;999.90;;;;;;;9.89;100.00;94206.47;5096471;28;20192;-58
2022/10/23 01:08:51;;;;;;;1999.90;999.90;;;;;;;9.84;100.00;94206.22;5096549;28;20164;-58
2022/10/23 01:11:25;;;;;;;1999.90;999.90;;;;;;;9.84;100.00;94204.22;5096440;28;20168;-76
2022/10/23 01:14:35;;;;;;;1999.90;999.90;;;;;;;9.84;100.00;94206.97;5096903;28;20183;-76
2022/10/23 01:17:16;;;;;;;1999.90;999.90;;;;;;;9.81;100.00;94196.91;5035209;28;20269;-79
2022/10/23 01:20:19;;;;;;;1999.90;999.90;;;;;;;9.77;100.00;94193.50;5093698;28;20187;-77
2022/10/23 01:23:03;;;;;;;1999.90;999.90;;;;;;;9.77;100.00;94190.03;5096312;28;20216;-77
2022/10/23 01:25:44;;;;;;;1999.90;999.90;;;;;;;9.74;100.00;94186.19;5096256;28;20195;-73
2022/10/23 01:28:15;;;;;;;1999.90;999.90;;;;;;;9.70;100.00;94190.94;5096443;28;20220;-58
2022/10/23 01:30:43;;;;;;;1999.90;999.90;;;;;;;9.68;100.00;94177.00;5096497;28;20165;-59
2022/10/23 01:33:26;;;;;;;1999.90;999.90;;;;;;;9.69;100.00;94180.50;5096207;28;20267;-58
2022/10/23 01:35:59;;;;;;;1999.90;999.90;;;;;;;9.66;100.00;94184.81;5096566;28;20179;-58
2022/10/23 01:38:30;;;;;;;1999.90;999.90;;;;;;;9.62;100.00;94181.41;5096617;28;20222;-58
2022/10/23 01:41:04;;;;;;;1999.90;999.90;;;;;;;9.63;100.00;94185.69;5096215;28;20520;-58
2022/10/23 01:43:43;;;;;;;1999.90;999.90;;;;;;;9.63;100.00;94185.69;5094953;28;20178;-76
2022/10/23 01:46:13;;;;;;;1999.90;999.90;;;;;;;9.61;100.00;94182.63;5095611;28;20225;-58
2022/10/23 01:48:43;;;;;;;1999.90;999.90;;;;;;;9.59;100.00;94174.09;5095412;28;20308;-63
2022/10/23 01:51:12;;;;;;;1999.90;999.90;;;;;;;9.57;100.00;94181.94;5095682;28;20543;-63
2022/10/23 01:53:41;;;;;;;1999.90;999.90;;;;;;;9.56;100.00;94174.19;5095694;28;20230;-63
2022/10/23 01:56:11;;;;;;;1999.90;999.90;;;;;;;9.52;100.00;94168.84;5096497;28;20183;-63
2022/10/23 01:58:38;;;;;;;1999.90;999.90;;;;;;;9.51;100.00;94156.38;5095669;28;20173;-63
2022/10/23 02:01:06;;;;;;;1999.90;999.90;;;;;;;9.47;100.00;94160.41;5095391;28;20172;-62
2022/10/23 02:03:34;;;;;;;1999.90;999.90;;;;;;;9.45;100.00;94160.81;5095506;28;20236;-63
2022/10/23 02:06:00;;;;;;;1999.90;999.90;;;;;;;9.45;100.00;94158.09;5095703;28;20279;-63
2022/10/23 02:08:26;;;;;;;1999.90;999.90;;;;;;;9.44;100.00;94153.06;5095914;28;20334;-64
2022/10/23 02:11:03;;;;;;;1999.90;999.90;;;;;;;9.44;100.00;94150.34;5095504;28;20252;-63
2022/10/23 02:13:35;;;;;;;1999.90;999.90;;;;;;;9.41;100.00;94148.47;5095819;28;20180;-62
2022/10/23 02:16:14;;;;;;;1999.90;999.90;;;;;;;9.40;100.00;94150.41;5095849;28;20168;-62
2022/10/23 02:18:49;;;;;;;1999.90;999.90;;;;;;;9.36;100.00;94143.53;5095040;28;20172;-63
2022/10/23 02:21:21;;;;;;;1999.90;999.90;;;;;;;9.34;100.00;94135.78;5095435;28;20168;-78
2022/10/23 02:24:00;;;;;;;1999.90;999.90;;;;;;;9.32;100.00;94137.38;5095195;28;20273;-63
2022/10/23 02:26:52;;;;;;;1999.90;999.90;;;;;;;9.26;100.00;94134.41;5094940;28;20197;-62
2022/10/23 02:29:25;;;;;;;1999.90;999.90;;;;;;;9.27;100.00;94133.25;5095753;28;20275;-63
2022/10/23 02:31:50;;;;;;;1999.90;999.90;;;;;;;9.25;100.00;94132.88;5095524;28;20248;-64
2022/10/23 02:34:17;;;;;;;1999.90;999.90;;;;;;;9.25;100.00;94130.16;5095083;28;20196;-65
2022/10/23 02:36:42;;;;;;;1999.90;999.90;;;;;;;9.24;100.00;94128.63;5094804;28;20177;-65
2022/10/23 02:39:08;;;;;;;1999.90;999.90;;;;;;;9.22;100.00;94122.84;5095090;28;20243;-62
2022/10/23 02:41:40;;;;;;;1999.90;999.90;;;;;;;9.18;100.00;94115.97;5095041;28;20169;-75
2022/10/23 02:44:20;;;;;;;1999.90;999.90;;;;;;;9.15;100.00;94117.56;5094730;28;20538;-75
2022/10/23 02:47:20;;;;;;;1999.90;999.90;;;;;;;9.11;100.00;94122.31;5095304;28;20204;-76
2022/10/23 02:50:09;;;;;;;1999.90;999.90;;;;;;;9.07;100.00;94123.63;5094702;28;20185;-75
2022/10/23 02:52:44;;;;;;;1999.90;999.90;;;;;;;9.04;100.00;94114.31;5095024;28;20610;-74
2022/10/23 02:55:41;;;;;;;1999.90;999.90;;;;;;;9.02;100.00;94108.53;5094337;28;20168;-75
2022/10/23 02:58:18;;;;;;;1999.90;999.90;;;;;;;8.98;100.00;94107.09;5083710;28;20192;-59
2022/10/23 03:00:51;;;;;;;1999.90;999.90;;;;;;;8.97;100.00;94111.00;5094295;28;20167;-65
2022/10/23 03:03:23;;;;;;;1999.90;999.90;;;;;;;8.97;100.00;94111.78;5094188;28;20713;-65
2022/10/23 03:05:49;;;;;;;1999.90;999.90;;;;;;;8.95;100.00;94108.69;5094881;28;20204;-64
2022/10/23 03:08:14;;;;;;;1999.90;999.90;;;;;;;8.90;100.00;94111.94;5094410;28;20173;-65
2022/10/23 03:10:41;;;;;;;1999.90;999.90;;;;;;;8.91;100.00;94102.56;5094357;28;20173;-65
2022/10/23 03:13:06;;;;;;;1999.90;999.90;;;;;;;8.90;100.00;94106.50;5094157;28;20202;-64
2022/10/23 03:15:32;;;;;;;1999.90;999.90;;;;;;;8.89;100.00;94110.38;5094311;28;20180;-64
2022/10/23 03:17:57;;;;;;;1999.90;999.90;;;;;;;8.85;100.00;94106.97;5094081;28;20175;-73
2022/10/23 03:20:22;;;;;;;1999.90;999.90;;;;;;;8.83;100.00;94106.66;5094724;28;20180;-64
2022/10/23 03:22:48;;;;;;;1999.90;999.90;;;;;;;8.80;100.00;94106.72;5093709;28;20227;-65
2022/10/23 03:25:13;;;;;;;1999.90;999.90;;;;;;;8.83;100.00;94098.50;5094032;28;20170;-64
2022/10/23 03:27:39;;;;;;;1999.90;999.90;;;;;;;8.80;100.00;94091.16;5094207;28;20177;-64
2022/10/23 03:30:05;;;;;;;1999.90;999.90;;;;;;;8.77;100.00;94097.44;5093713;28;20179;-64
2022/10/23 03:32:30;;;;;;;1999.90;999.90;;;;;;;8.80;100.00;94090.38;5093940;28;20197;-64
2022/10/23 03:34:56;;;;;;;1999.90;999.90;;;;;;;8.75;100.00;94093.63;5093704;28;20271;-62
2022/10/23 03:37:21;;;;;;;1999.90;999.90;;;;;;;8.74;100.00;94081.22;5093867;28;20176;-73
2022/10/23 03:39:47;;;;;;;1999.90;999.90;;;;;;;8.72;100.00;94092.53;5094609;28;20180;-72
2022/10/23 03:42:12;;;;;;;1999.90;999.90;;;;;;;8.67;100.00;94075.94;5093847;28;20234;-71
2022/10/23 03:44:37;;;;;;;1999.90;999.90;;;;;;;8.66;100.00;94086.03;5093857;28;20227;-71
2022/10/23 03:47:03;;;;;;;1999.90;999.90;;;;;;;8.68;100.00;94080.16;5094323;28;20294;-71
2022/10/23 03:49:28;;;;;;;1999.90;999.90;;;;;;;8.68;100.00;94082.88;5093511;28;20188;-71
2022/10/23 03:51:53;;;;;;;1999.90;999.90;;;;;;;8.67;100.00;94093.00;5093632;28;20180;-62
2022/10/23 03:54:21;;;;;;;1999.90;999.90;;;;;;;8.66;100.00;94091.47;5094577;28;20274;-63
2022/10/23 03:56:47;;;;;;;1999.90;999.90;;;;;;;8.66;100.00;94080.59;5093596;28;20187;-62
2022/10/23 03:59:12;;;;;;;1999.90;999.90;;;;;;;8.66;100.00;94086.03;5093662;28;20176;-62
2022/10/23 04:01:37;;;;;;;1999.90;999.90;;;;;;;8.62;100.00;94081.84;5093487;28;20180;-62
2022/10/23 04:04:03;;;;;;;1999.90;999.90;;;;;;;8.62;100.00;94079.91;5093235;28;20224;-61
2022/10/23 04:06:28;;;;;;;1999.90;999.90;;;;;;;8.58;100.00;94079.22;5096481;28;20200;-62
2022/10/23 04:08:53;;;;;;;1999.90;999.90;;;;;;;8.60;100.00;94079.56;5097780;28;20179;-61
2022/10/23 04:11:19;;;;;;;1999.90;999.90;;;;;;;8.60;100.00;94076.81;5097833;28;20213;-62
2022/10/23 04:13:44;;;;;;;1999.90;999.90;;;;;;;8.58;100.00;94067.56;5097769;28;20179;-62
2022/10/23 04:16:10;;;;;;;1999.90;999.90;;;;;;;8.58;100.00;94065.63;5097285;28;20175;-62
2022/10/23 04:18:35;;;;;;;1999.90;999.90;;;;;;;8.59;100.00;94069.88;5097473;28;20175;-62
2022/10/23 04:21:00;;;;;;;1999.90;999.90;;;;;;;8.62;100.00;94065.53;5097410;28;20187;-63
2022/10/23 04:23:26;;;;;;;1999.90;999.90;;;;;;;8.63;100.00;94059.66;5097160;28;20227;-63
2022/10/23 04:25:55;;;;;;;1999.90;999.90;;;;;;;8.69;100.00;94049.81;5097194;28;20200;-62
2022/10/23 04:28:20;;;;;;;1999.90;999.90;;;;;;;8.71;100.00;94043.94;5097958;28;20180;-62
2022/10/23 04:30:45;;;;;;;1999.90;999.90;;;;;;;8.74;100.00;94049.31;5097544;28;20169;-58
2022/10/23 04:33:11;;;;;;;1999.90;999.90;;;;;;;8.74;100.00;94043.84;5097515;28;20199;-58
2022/10/23 04:35:36;;;;;;;1999.90;999.90;;;;;;;8.78;100.00;94041.81;5097424;28;20177;-58
2022/10/23 04:38:01;;;;;;;1999.90;999.90;;;;;;;8.75;100.00;94042.66;5097767;28;20191;-58
2022/10/23 04:40:27;;;;;;;1999.90;999.90;;;;;;;8.74;100.00;94032.97;5097760;28;20181;-59
2022/10/23 04:42:52;;;;;;;1999.90;999.90;;;;;;;8.77;100.00;94037.56;5097004;28;20175;-59
2022/10/23 04:45:20;;;;;;;1999.90;999.90;;;;;;;8.72;100.00;94046.25;5097401;28;20187;-58
2022/10/23 04:47:45;;;;;;;1999.90;999.90;;;;;;;8.73;100.00;94042.34;5097045;28;20173;-75
2022/10/23 04:50:11;;;;;;;1999.90;999.90;;;;;;;8.74;100.00;94032.97;5097579;28;20173;-59
2022/10/23 04:52:37;;;;;;;1999.90;999.90;;;;;;;8.74;100.00;94026.78;5097010;28;20224;-62
2022/10/23 04:55:03;;;;;;;1999.90;999.90;;;;;;;8.72;100.00;94024.47;5096723;28;20165;-63
2022/10/23 04:57:28;;;;;;;1999.90;999.90;;;;;;;8.72;100.00;94026.44;5096903;28;20180;-65
2022/10/23 04:59:53;;;;;;;1999.90;999.90;;;;;;;8.70;100.00;94021.41;5096699;28;20178;-63
2022/10/23 05:02:19;;;;;;;1999.90;999.90;;;;;;;8.71;100.00;94017.50;5096743;28;20262;-64
2022/10/23 05:04:44;;;;;;;1999.90;999.90;;;;;;;8.73;100.00;94017.06;5096657;28;20189;-65
2022/10/23 05:07:09;;;;;;;1999.90;999.90;;;;;;;8.74;100.00;94016.66;5096914;28;20200;-61
2022/10/23 05:09:35;;;;;;;1999.90;999.90;;;;;;;8.74;100.00;94011.19;5096381;28;20180;-82
2022/10/23 05:12:00;;;;;;;1999.90;999.90;;;;;;;8.76;100.00;94014.28;5096430;28;20180;-83
2022/10/23 05:14:25;;;;;;;1999.90;999.90;;;;;;;8.76;100.00;94008.84;5096860;28;20182;-82
2022/10/23 05:16:58;;;;;;;1999.90;999.90;;;;;;;8.77;100.00;94010.34;5096130;28;20172;-82
2022/10/23 05:19:28;;;;;;;1999.90;999.90;;;;;;;8.75;100.00;94007.28;5096942;28;20191;-79
2022/10/23 05:21:55;;;;;;;1999.90;999.90;;;;;;;8.75;100.00;94001.84;5097181;28;20653;-81
2022/10/23 05:24:24;;;;;;;1999.90;999.90;;;;;;;8.77;100.00;93999.47;5096854;28;20169;-79
2022/10/23 05:26:51;;;;;;;1999.90;999.90;;;;;;;8.75;100.00;93999.13;5096215;28;20226;-64
2022/10/23 05:29:20;;;;;;;1999.90;999.90;;;;;;;8.76;100.00;93995.22;5096260;28;20182;-59
2022/10/23 05:31:49;;;;;;;1999.90;999.90;;;;;;;8.78;100.00;93984.66;5096889;28;20175;-58
2022/10/23 05:34:17;;;;;;;1999.90;999.90;;;;;;;8.79;100.00;93980.78;5096269;28;20175;-58
2022/10/23 05:36:44;;;;;;;1999.90;999.90;;;;;;;8.82;100.00;93982.63;5095882;28;20198;-58
2022/10/23 05:39:09;;;;;;;1999.90;999.90;;;;;;;8.85;100.00;93979.06;5079654;28;20189;-58
2022/10/23 05:41:34;;;;;;;1999.90;999.90;;;;;;;8.87;100.00;93981.34;5095998;28;20179;-58
2022/10/23 05:44:00;;;;;;;1999.90;999.90;;;;;;;8.86;100.00;93977.09;5096602;28;20189;-62
2022/10/23 05:46:26;;;;;;;1999.90;999.90;;;;;;;8.86;100.00;93977.84;5096552;28;20297;-69
2022/10/23 05:48:52;;;;;;;1999.90;999.90;;;;;;;8.88;100.00;93966.53;5096597;28;20178;-69
2022/10/23 05:51:21;;;;;;;1999.90;999.90;;;;;;;8.91;100.00;93965.69;5095882;28;20214;-68
2022/10/23 05:53:50;;;;;;;1999.90;999.90;;;;;;;8.93;100.00;93957.88;5096296;28;20255;-68
2022/10/23 05:56:16;;;;;;;1999.90;999.90;;;;;;;8.95;100.00;93967.13;5095864;28;20589;-73
2022/10/23 05:58:41;;;;;;;1999.90;999.90;;;;;;;8.97;100.00;93967.50;5095634;28;20173;-71
2022/10/23 06:01:09;;;;;;;1999.90;999.90;;;;;;;9.02;100.00;93972.41;5095528;28;20177;-73
2022/10/23 06:03:35;;;;;;;1999.90;999.90;;;;;;;9.05;100.00;93981.66;5095520;28;20196;-65
2022/10/23 06:06:00;;;;;;;1999.90;999.90;;;;;;;9.07;100.00;93969.16;5095490;28;20196;-62
2022/10/23 06:08:26;;;;;;;1999.90;999.90;;;;;;;9.15;100.00;93970.50;5095225;28;20177;-57
2022/10/23 06:10:51;;;;;;;1999.90;999.90;;;;;;;9.22;100.00;93970.31;5095867;28;20163;-59
2022/10/23 06:13:17;;;;;;;1999.90;999.90;;;;;;;9.33;100.00;93968.06;5095148;28;20169;-59
2022/10/23 06:15:42;;;;;;;1999.90;999.90;;;;;;;9.41;100.00;93968.66;5095472;28;20175;-60
2022/10/23 06:18:08;;;;;;;1999.90;999.90;;;;;;;9.53;100.00;93962.47;5095071;28;20176;-60
2022/10/23 06:20:37;;;;;;;1999.90;999.90;;;;;;;9.77;100.00;93950.88;5095808;28;20303;-73
2022/10/23 06:23:04;;;;;;;1999.90;999.90;;;;;;;10.05;100.00;93939.19;5095072;28;20235;-59
2022/10/23 06:25:30;;;;;;;1999.90;999.90;;;;;;;10.52;100.00;93911.25;5094928;28;20201;-59
2022/10/23 06:27:55;;;;;;;1999.90;999.90;;;;;;;11.26;100.00;93893.13;5094930;28;20196;-59
2022/10/23 06:30:20;;;;;;;1999.90;999.90;;;;;;;11.85;100.00;93895.66;5094840;28;20299;-59
2022/10/23 06:32:46;;;;;;;1999.90;999.90;;;;;;;12.37;100.00;93926.50;5094948;28;20185;-61
2022/10/23 06:35:11;;;;;;;1999.90;999.90;;;;;;;12.58;100.00;93982.41;5094984;28;20179;-59
2022/10/23 06:37:36;;;;;;;1999.90;999.90;;;;;;;12.68;100.00;94082.56;5095745;28;20186;-60
2022/10/23 06:40:02;;;;;;;1999.90;999.90;;;;;;;13.26;100.00;94187.66;5095018;28;20180;-74
2022/10/23 06:42:28;;;;;;;1999.90;999.90;;;;;;;13.81;100.00;94310.16;5094840;28;20180;-76
2022/10/23 06:44:54;;;;;;;1999.90;999.90;;;;;;;13.69;100.00;94439.94;5094738;28;20235;-75
2022/10/23 06:47:19;;;;;;;1999.90;999.90;;;;;;;14.56;100.00;94545.03;5094849;28;20220;-76
2022/10/23 06:49:44;;;;;;;1999.90;999.90;;;;;;;14.81;100.00;94666.63;5094334;28;20179;-76
2022/10/23 06:52:10;;;;;;;1999.90;999.90;;;;;;;15.00;100.00;94758.22;5094777;28;20172;-77
2022/10/23 06:54:35;;;;;;;1999.90;999.90;;;;;;;15.45;100.00;94846.66;5094837;28;20183;-78
2022/10/23 06:57:00;;;;;;;1999.90;999.90;;;;;;;16.08;100.00;94880.88;5094550;28;20177;-64
2022/10/23 06:59:26;;;;;;;1999.90;999.90;;;;;;;16.83;100.00;94954.00;5094727;28;20270;-60
2022/10/23 07:01:51;;;;;;;1999.90;999.90;;;;;;;16.76;100.00;95014.97;5094474;28;20184;-60
2022/10/23 07:04:17;;;;;;;1999.90;999.90;;;;;;;16.89;100.00;95050.75;5094440;28;20204;-60
2022/10/23 07:06:42;;;;;;;1999.90;999.90;;;;;;;17.30;100.00;95059.34;5094413;28;20212;-60
2022/10/23 07:09:08;;;;;;;1999.90;999.90;;;;;;;17.38;100.00;95117.81;5094099;28;20214;-61
2022/10/23 07:11:33;;;;;;;1999.90;999.90;;;;;;;17.39;100.00;95130.38;5093965;28;20202;-60
2022/10/23 07:13:59;;;;;;;1999.90;999.90;;;;;;;17.83;100.00;95182.31;5094129;28;20207;-61
2022/10/23 07:16:24;;;;;;;1999.90;999.90;;;;;;;17.51;100.00;95201.34;5094864;28;20183;-63
2022/10/23 07:18:57;;;;;;;1999.90;999.90;;;;;;;17.36;100.00;95217.66;5094265;28;20199;-65
2022/10/23 07:21:24;;;;;;;1999.90;999.90;;;;;;;17.95;100.00;95205.56;5094736;28;20165;-64
2022/10/23 07:23:49;;;;;;;1999.90;999.90;;;;;;;18.03;100.00;95228.91;5093935;28;20228;-63
2022/10/23 07:26:15;;;;;;;1999.90;999.90;;;;;;;17.87;100.00;95224.41;5094052;28;20245;-63
2022/10/23 07:28:43;;;;;;;1999.90;999.90;;;;;;;17.92;100.00;95256.19;5094164;28;20195;-63
2022/10/23 07:31:09;;;;;;;1999.90;999.90;;;;;;;18.07;100.00;95248.91;5094107;28;20172;-63
2022/10/23 07:33:34;;;;;;;1999.90;999.90;;;;;;;18.14;100.00;95262.44;5094092;28;20197;-70
2022/10/23 07:36:04;;;;;;;1999.90;999.90;;;;;;;17.94;100.00;95256.50;5094554;28;20272;-60
2022/10/23 07:38:29;;;;;;;1999.90;999.90;;;;;;;17.76;100.00;95257.19;5093651;28;20187;-60
2022/10/23 07:40:58;;;;;;;1999.90;999.90;;;;;;;17.35;100.00;95246.50;5093311;28;20169;-61
2022/10/23 07:43:24;;;;;;;1999.90;999.90;;;;;;;17.11;100.00;95244.63;5093837;28;20183;-61
2022/10/23 07:45:51;;;;;;;1999.90;999.90;;;;;;;17.10;100.00;95243.06;5093697;28;20404;-61
2022/10/23 07:48:17;;;;;;;1999.90;999.90;;;;;;;16.96;100.00;95227.00;5094197;28;20214;-61
2022/10/23 07:50:42;;;;;;;1999.90;999.90;;;;;;;17.09;100.00;95224.97;5094062;28;20165;-60
2022/10/23 07:53:16;;;;;;;1999.90;999.90;;;;;;;17.19;100.00;95216.31;5093294;28;20208;-60
2022/10/23 07:55:42;;;;;;;1999.90;999.90;;;;;;;17.21;100.00;95235.97;5094490;28;20229;-60
2022/10/23 07:58:07;;;;;;;1999.90;999.90;;;;;;;17.46;100.00;95244.13;5093817;28;20209;-60
2022/10/23 08:00:32;;;;;;;1999.90;999.90;;;;;;;17.24;100.00;95248.09;5093842;28;20560;-60
2022/10/23 08:02:58;;;;;;;1999.90;999.90;;;;;;;17.34;100.00;95241.41;5093834;28;20234;-60
2022/10/23 08:05:23;;;;;;;1999.90;999.90;;;;;;;17.76;100.00;95257.19;5093834;28;20207;-60
2022/10/23 08:07:49;;;;;;;1999.90;999.90;;;;;;;17.32;100.00;95265.94;5093706;28;20177;-61
2022/10/23 08:10:14;;;;;;;1999.90;999.90;;;;;;;17.15;100.00;95250.78;5094001;28;20187;-62
2022/10/23 08:12:39;;;;;;;1999.90;999.90;;;;;;;17.33;100.00;95235.13;5093628;28;20326;-65
2022/10/23 08:15:05;;;;;;;1999.90;999.90;;;;;;;17.82;100.00;95255.38;5093551;28;20224;-61
2022/10/23 08:17:30;;;;;;;1999.90;999.90;;;;;;;17.94;100.00;95273.09;5093153;28;20233;-61
2022/10/23 08:19:56;;;;;;;1999.90;999.90;;;;;;;18.15;100.00;95278.56;5093999;28;20181;-61
2022/10/23 08:22:21;;;;;;;1999.90;999.90;;;;;;;18.39;100.00;95293.41;5093567;28;20212;-61
2022/10/23 08:24:46;;;;;;;1999.90;999.90;;;;;;;19.04;100.00;95304.94;5093508;28;20172;-61
2022/10/23 08:27:12;;;;;;;1999.90;999.90;;;;;;;19.67;100.00;95328.38;5093150;28;20727;-61
2022/10/23 08:29:37;;;;;;;1999.90;999.90;;;;;;;19.00;100.00;95345.06;5093336;28;20177;-61
2022/10/23 08:32:03;;;;;;;1999.90;999.90;;;;;;;19.52;100.00;95344.84;5093286;28;20216;-62
2022/10/23 08:34:28;;;;;;;1999.90;999.90;;;;;;;19.24;100.00;95343.28;5093237;28;20181;-61
2022/10/23 08:36:53;;;;;;;1999.90;999.90;;;;;;;20.09;100.00;95335.53;5093380;28;20172;-62
2022/10/23 08:39:19;;;;;;;1999.90;999.90;;;;;;;19.80;100.00;95360.22;5093363;28;20235;-61
2022/10/23 08:41:50;;;;;;;1999.90;999.90;;;;;;;20.27;100.00;95354.94;5093378;28;20177;-62
2022/10/23 08:44:29;;;;;;;1999.90;999.90;;;;;;;20.24;100.00;95361.41;5092920;28;20187;-62
2022/10/23 08:47:13;;;;;;;1999.90;999.90;;;;;;;19.85;100.00;95361.63;5093734;28;20210;-68
2022/10/23 08:49:54;;;;;;;1999.90;999.90;;;;;;;19.86;100.00;95358.38;5093514;28;20222;-66
2022/10/23 08:52:42;;;;;;;1999.90;999.90;;;;;;;19.96;100.00;95356.38;5095698;28;20169;-66
2022/10/23 08:55:32;;;;;;;1999.90;999.90;;;;;;;20.53;100.00;95350.53;5096580;28;20216;-65
2022/10/23 08:58:07;;;;;;;1999.90;999.90;;;;;;;20.48;100.00;95347.63;5097316;28;20170;-66
2022/10/23 09:00:32;;;;;;;1999.90;999.90;;;;;;;20.56;100.00;95305.19;5096644;28;20178;-66
2022/10/23 09:03:03;;;;;;;1999.90;999.90;;;;;;;20.41;100.00;95293.25;5097202;28;20173;-66
2022/10/23 09:06:15;;;;;;;1999.90;999.90;;;;;;;21.08;100.00;95304.59;5096312;28;20223;-65
2022/10/23 09:08:52;;;;;;;1999.90;999.90;;;;;;;21.22;100.00;95317.00;5082593;28;20633;-65
2022/10/23 09:11:37;;;;;;;1999.90;999.90;;;;;;;20.99;100.00;95326.91;5097037;28;20164;-66
2022/10/23 09:14:30;;;;;;;1999.90;999.90;;;;;;;20.81;100.00;95337.28;5097143;28;20169;-66
2022/10/23 09:17:11;;;;;;;1999.90;999.90;;;;;;;20.51;100.00;95325.28;5096151;28;20209;-66
2022/10/23 09:19:36;;;;;;;1999.90;999.90;;;;;;;20.25;100.00;95318.56;5097322;28;20181;-66
2022/10/23 09:22:02;;;;;;;1999.90;999.90;;;;;;;20.30;100.00;95319.94;5096770;28;20703;-66
2022/10/23 09:24:30;;;;;;;1999.90;999.90;;;;;;;20.50;100.00;95318.16;5096425;28;20176;-63
2022/10/23 09:26:56;;;;;;;1999.90;999.90;;;;;;;20.91;100.00;95319.34;5096158;28;20226;-61
2022/10/23 09:29:22;;;;;;;1999.90;999.90;;;;;;;20.66;100.00;95315.03;5096372;28;20176;-61
2022/10/23 09:31:49;;;;;;;1999.90;999.90;;;;;;;20.78;100.00;95314.03;5097080;28;20183;-61
2022/10/23 09:34:19;;;;;;;1999.90;999.90;;;;;;;20.48;100.00;95308.78;5096193;28;20180;-61
2022/10/23 09:36:56;;;;;;;1999.90;999.90;;;;;;;20.73;100.00;95314.69;5096599;28;20272;-61
2022/10/23 09:39:33;;;;;;;1999.90;999.90;;;;;;;20.74;100.00;95327.31;5096689;28;20237;-61
2022/10/23 09:42:13;;;;;;;1999.90;999.90;;;;;;;21.20;100.00;95320.25;5095872;28;20164;-64
2022/10/23 09:44:47;;;;;;;1999.90;999.90;;;;;;;21.94;100.00;95322.75;5095587;28;20672;-68
2022/10/23 09:47:19;;;;;;;1999.90;999.90;;;;;;;21.94;100.00;95322.75;5096471;28;20295;-69
2022/10/23 09:49:50;;;;;;;1999.90;999.90;;;;;;;22.14;100.00;95317.28;5095759;28;20207;-68
2022/10/23 09:52:16;;;;;;;1999.90;999.90;;;;;;;22.81;100.00;95313.59;5096159;28;20264;-68
2022/10/23 09:55:18;;;;;;;1999.90;999.90;;;;;;;23.43;100.00;95310.38;5096161;28;20212;-68
2022/10/23 09:57:44;;;;;;;1999.90;999.90;;;;;;;23.62;100.00;95306.81;5076548;28;20188;-68
2022/10/23 10:00:12;;;;;;;1999.90;999.90;;;;;;;24.20;100.00;95308.44;5095431;28;20229;-61
2022/10/23 10:02:39;;;;;;;1999.90;999.90;;;;;;;24.41;100.00;95293.13;5095467;28;20177;-66
2022/10/23 10:05:26;;;;;;;1999.90;999.90;;;;;;;24.08;100.00;95298.44;5094990;28;20291;-62
2022/10/23 10:08:13;;;;;;;1999.90;999.90;;;;;;;24.05;100.00;95296.63;5095097;28;20275;-62
2022/10/23 10:10:50;;;;;;;1999.90;999.90;;;;;;;24.54;100.00;95293.47;5096248;28;20172;-63
2022/10/23 10:13:27;;;;;;;1999.90;999.90;;;;;;;24.49;100.00;95305.38;5095773;28;20171;-63
2022/10/23 10:16:02;;;;;;;1999.90;999.90;;;;;;;23.81;100.00;95290.50;5095774;28;20268;-64
2022/10/23 10:18:41;;;;;;;1999.90;999.90;;;;;;;23.79;100.00;95288.22;5095295;28;20179;-61
2022/10/23 10:21:31;;;;;;;1999.90;999.90;;;;;;;23.59;100.00;95295.84;5095345;28;20169;-66
2022/10/23 10:24:11;;;;;;;1999.90;999.90;;;;;;;23.57;100.00;95296.38;5095494;28;20193;-64
2022/10/23 10:27:05;;;;;;;1999.90;999.90;;;;;;;24.24;100.00;95290.22;5095347;28;20657;-64
2022/10/23 10:29:42;;;;;;;1999.90;999.90;;;;;;;23.96;100.00;95285.63;5095702;28;20173;-64
2022/10/23 10:32:13;;;;;;;1999.90;999.90;;;;;;;24.37;100.00;95281.44;5095597;28;20196;-64
2022/10/23 10:35:03;;;;;;;1999.90;999.90;;;;;;;24.55;100.00;95275.47;5095234;28;20184;-63
2022/10/23 10:37:51;;;;;;;1999.90;999.90;;;;;;;25.11;100.00;95266.97;5096390;28;20191;-67
2022/10/23 10:40:38;;;;;;;1999.90;999.90;;;;;;;25.46;100.00;95269.44;5095443;28;20172;-64
2022/10/23 10:43:22;;;;;;;1999.90;999.90;;;;;;;25.12;100.00;95264.91;5094981;28;20183;-64
2022/10/23 10:46:04;;;;;;;1999.90;999.90;;;;;;;24.67;100.00;95272.28;5094943;28;20242;-64
2022/10/23 10:48:50;;;;;;;1999.90;999.90;;;;;;;24.12;100.00;95254.31;5095208;28;20198;-64
2022/10/23 10:51:27;;;;;;;1999.90;999.90;;;;;;;24.17;100.00;95250.78;5094365;28;20231;-65
2022/10/23 10:53:58;;;;;;;1999.90;999.90;;;;;;;23.25;100.00;95243.75;5095198;28;20225;-64
2022/10/23 10:56:28;;;;;;;1999.90;999.90;;;;;;;22.85;100.00;95238.16;5094654;28;20177;-66
2022/10/23 10:59:14;;;;;;;1999.90;999.90;;;;;;;22.87;100.00;95235.66;5094796;28;20263;-68
2022/10/23 11:01:58;;;;;;;1999.90;999.90;;;;;;;22.44;100.00;95232.50;5094313;28;20258;-67
2022/10/23 11:04:43;;;;;;;1999.90;999.90;;;;;;;21.94;100.00;95228.19;5094532;28;20227;-68